Latest Coastal Weather Observations for Dunalley

IDT60701

Issued at 9:32 am EDT Tuesday 23 December 2014 (issued every 10 minutes, with the page automatically refreshed every 10 minutes)

About coastal observations | Map of coastal stations | Coastal observations for TAS | Marine services | Other Formats
Station Details ID: 094254 Name: DUNALLEY (STROUD POINT) Lat: -42.90 Lon: 147.79 Height: 12.43 m
Data from the previous 72 hours. | See also: Recent months at Dunalley
Date/Time
EDT
Temp

°C
Wind Pressure Rain
since 9am
mm
Weather Cloud Vis
km
Sea
Height
m
Swell
Dir
 
Speed
knots
Gust
knots
hPa Trend Height
m
Period
s
Dir
23/09:30am 17.4 NE 1 4 1004.7 - 0.0 - - - - - - -
23/09:00am 17.4 ENE 9 13 1004.8 - 0.4 - - - - - - -
23/08:30am 17.1 ENE 2 5 1005.5 - 0.4 - - - - - - -
23/08:00am 17.1 ENE 2 4 1005.9 - 0.4 - - - - - - -
23/07:30am 16.7 ENE 4 6 1005.9 - 0.4 - - - - - - -
23/07:00am 16.6 NNE 4 7 1006.5 - 0.4 - - - - - - -
23/06:30am 16.6 NE 10 13 1005.8 - 0.4 - - - - - - -
23/06:00am 16.3 NNE 7 11 1006.4 - 0.4 - - - - - - -
23/05:30am 16.5 NE 14 20 1006.1 - 0.4 - - - - - - -
23/05:00am 16.3 NE 13 18 1006.4 - 0.4 - - - - - - -
23/04:30am 16.3 NE 15 20 1006.5 - 0.4 - - - - - - -
23/04:00am 16.1 NE 13 16 1007.0 - 0.2 - - - - - - -
23/03:30am 16.2 NNE 11 15 1007.4 - 0.2 - - - - - - -
23/03:00am 16.3 NE 11 16 1007.6 - 0.2 Recent precip. - - - - - -
23/02:30am 16.3 NE 16 21 1008.5 - 0.0 - - - - - - -
23/02:00am 16.5 NE 22 27 1008.6 - 0.0 - - - - - - -
23/01:30am 16.4 NE 15 21 1009.2 - 0.0 - - - - - - -
23/01:00am 16.7 ENE 9 12 1010.3 - 0.0 - - - - - - -
23/12:30am 16.9 ENE 10 13 1010.7 - 0.0 - - - - - - -
23/12:00am 16.6 NE 9 13 1011.4 - 0.0 - - - - - - -
 
Date/Time
EDT
Temp

°C
Wind Pressure Rain
since 9am
mm
Weather Cloud Vis
km
Sea
Height
m
Swell
Dir
 
Speed
knots
Gust
knots
hPa Trend Height
m
Period
s
Dir
22/11:30pm 16.5 NE 12 15 1011.9 - 0.0 - - - - - - -
22/11:00pm 16.5 NE 14 18 1011.9 - 0.0 - - - - - - -
22/10:30pm 16.5 NE 13 17 1012.2 - 0.0 - - - - - - -
22/10:00pm 16.8 NE 9 13 1012.4 - 0.0 - - - - - - -
22/09:30pm 16.8 NE 19 24 1011.7 - 0.0 - - - - - - -
22/09:00pm 16.8 NE 21 25 1011.6 - 0.0 - - - - - - -
22/08:30pm 17.0 NE 23 28 1011.6 - 0.0 - - - - - - -
22/08:00pm 17.0 ENE 21 26 1011.6 - 0.0 - - - - - - -
22/07:30pm 17.3 NE 21 26 1011.6 - 0.0 - - - - - - -
22/07:00pm 17.4 NE 22 28 1011.7 - 0.0 - - - - - - -
22/06:30pm 17.9 NE 22 26 1011.8 - 0.0 - - - - - - -
22/06:00pm 17.7 NE 23 28 1012.0 - 0.0 - - - - - - -
22/05:30pm 17.7 ENE 24 30 1012.3 - 0.0 - - - - - - -
22/05:00pm 18.5 ENE 21 26 1012.8 - 0.0 - - - - - - -
22/04:30pm 18.1 NE 21 27 1013.3 - 0.0 - - - - - - -
22/04:00pm 17.9 ENE 22 26 1013.3 - 0.0 - - - - - - -
22/03:30pm 18.2 ENE 21 27 1013.5 - 0.0 - - - - - - -
22/03:00pm 19.2 ENE 18 22 1014.0 - 0.0 - - - - - - -
22/02:30pm 19.8 ENE 17 22 1014.4 - 0.0 - - - - - - -
22/02:00pm 20.1 ENE 18 23 1014.6 - 0.0 - - - - - - -
22/01:30pm 18.9 ENE 21 25 1014.6 - 0.0 - - - - - - -
22/01:00pm 18.8 ENE 19 24 1014.8 - 0.0 - - - - - - -
22/12:30pm 18.7 ENE 17 21 1015.0 - 0.0 - - - - - - -
22/12:00pm 19.4 ENE 16 21 1015.1 - 0.0 - - - - - - -
22/11:30am 19.3 ENE 15 17 1015.5 - 0.0 - - - - - - -
22/11:00am 18.3 ENE 15 18 1015.7 - 0.0 - - - - - - -
22/10:30am 17.1 ENE 13 17 1016.0 - 0.0 - - - - - - -
22/10:00am 17.3 NE 13 16 1016.1 - 0.0 - - - - - - -
22/09:30am 16.1 ENE 12 15 1016.1 - 0.0 - - - - - - -
22/09:00am 15.9 NE 12 16 1016.1 - 0.0 - - - - - - -
22/08:30am 16.1 NE 11 16 1015.8 - 0.0 - - - - - - -
22/08:00am 15.9 ENE 8 11 1015.5 - 0.0 - - - - - - -
22/07:30am 16.0 S 5 10 1015.5 - 0.0 - - - - - - -
22/07:00am 15.3 S 1 3 1015.4 - 0.0 - - - - - - -
22/06:30am 12.9 CALM 0 0 1015.1 - 0.0 - - - - - - -
22/06:00am 12.9 CALM 0 1 1014.7 - 0.0 - - - - - - -
22/05:30am 12.0 S 3 5 1014.5 - 0.0 - - - - - - -
22/05:00am 13.2 S 3 5 1014.4 - 0.0 - - - - - - -
22/04:30am 13.1 S 4 5 1014.1 - 0.0 - - - - - - -
22/04:00am 13.3 S 4 5 1014.2 - 0.0 - - - - - - -
22/03:30am 13.7 S 5 7 1014.0 - 0.0 - - - - - - -
22/03:00am 14.2 S 7 9 1014.1 - 0.0 - - - - - - -
22/02:30am 14.6 S 11 13 1014.1 - 0.0 - - - - - - -
22/02:00am 14.8 S 11 14 1014.2 - 0.0 - - - - - - -
22/01:30am 15.1 SSW 7 15 1013.9 - 0.0 - - - - - - -
22/01:00am 14.7 SSW 4 9 1013.8 - 0.0 - - - - - - -
22/12:30am 14.8 SSW 5 8 1013.8 - 0.0 - - - - - - -
22/12:00am 14.1 CALM 0 2 1013.8 - 0.0 - - - - - - -
 
Date/Time
EDT
Temp

°C
Wind Pressure Rain
since 9am
mm
Weather Cloud Vis
km
Sea
Height
m
Swell
Dir
 
Speed
knots
Gust
knots
hPa Trend Height
m
Period
s
Dir
21/11:30pm 15.3 S 2 3 1013.6 - 0.0 - - - - - - -
21/11:00pm 15.4 S 8 9 1013.3 - 0.0 - - - - - - -
21/10:30pm 15.4 SSE 4 5 1013.3 - 0.0 - - - - - - -
21/10:00pm 15.7 SSE 3 5 1012.9 - 0.0 - - - - - - -
21/09:30pm 15.9 SSE 4 6 1012.3 - 0.0 - - - - - - -
21/09:00pm 16.5 SSE 5 6 1011.8 - 0.0 - - - - - - -
21/08:30pm 17.7 S 7 8 1011.5 - 0.0 - - - - - - -
21/08:00pm 18.3 S 10 12 1011.1 - 0.0 - - - - - - -
21/07:30pm 18.9 SSE 8 11 1010.7 - 0.0 - - - - - - -
21/07:00pm 19.0 SSE 11 13 1010.3 - 0.0 - - - - - - -
21/06:30pm 19.4 SSE 10 12 1010.0 - 0.0 - - - - - - -
21/06:00pm 19.2 S 14 18 1009.9 - 0.0 - - - - - - -
21/05:30pm 20.6 SSW 10 14 1009.5 - 0.0 - - - - - - -
21/05:00pm 21.8 NE 8 11 1009.3 - 0.0 - - - - - - -
21/04:30pm 20.4 ENE 10 13 1009.4 - 0.0 - - - - - - -
21/04:00pm 20.4 ENE 14 18 1009.1 - 0.0 - - - - - - -
21/03:30pm 20.9 ENE 16 19 1009.1 - 0.0 - - - - - - -
21/03:00pm 20.1 ENE 16 20 1009.2 - 0.0 - - - - - - -
21/02:30pm 20.3 ENE 15 19 1009.8 - 0.0 - - - - - - -
21/02:00pm 19.8 ENE 16 20 1010.1 - 0.0 - - - - - - -
21/01:30pm 20.2 ENE 17 20 1010.3 - 0.0 - - - - - - -
21/01:00pm 19.1 ENE 19 23 1010.8 - 0.0 - - - - - - -
21/12:30pm 20.9 NE 16 19 1010.8 - 0.0 - - - - - - -
21/12:00pm 19.9 ENE 15 19 1011.5 - 0.0 - - - - - - -
21/11:30am 19.9 NE 15 19 1011.8 - 0.0 - - - - - - -
21/11:00am 19.2 ENE 14 17 1012.1 - 0.0 - - - - - - -
21/10:30am 19.1 NE 13 19 1012.8 - 0.0 - - - - - - -
21/10:00am 19.0 ENE 12 16 1013.4 - 0.0 - - - - - - -
21/09:30am 17.7 ENE 12 15 1013.7 - 0.0 - - - - - - -
21/09:00am 16.8 NE 11 14 1013.9 - 0.0 - - - - - - -
21/08:30am 15.8 NE 12 15 1014.0 - 0.0 - - - - - - -
21/08:00am 16.3 NE 11 14 1014.0 - 0.0 - - - - - - -
21/07:30am 14.2 NE 10 13 1014.1 - 0.0 - - - - - - -
21/07:00am 14.0 ENE 10 13 1014.4 - 0.0 - - - - - - -
21/06:30am 13.5 SSE 9 11 1015.0 - 0.0 - - - - - - -
21/06:00am 13.6 S 6 7 1015.4 - 0.0 - - - - - - -
21/05:30am 13.6 S 6 7 1015.0 - 0.0 - - - - - - -
21/05:00am 13.6 S 7 9 1014.4 - 0.0 - - - - - - -
21/04:30am 13.3 S 6 9 1014.1 - 0.0 - - - - - - -
21/04:00am 13.1 S 5 6 1014.1 - 0.0 - - - - - - -
21/03:30am 13.1 S 4 5 1014.3 - 0.0 - - - - - - -
21/03:00am 12.8 S 3 5 1014.6 - 0.0 - - - - - - -
21/02:30am 12.9 S 4 5 1014.9 - 0.0 - - - - - - -
21/02:00am 12.8 S 3 4 1015.2 - 0.0 - - - - - - -
21/01:30am 12.9 S 2 3 1015.6 - 0.0 - - - - - - -
21/01:00am 13.1 S 3 5 1015.8 - 0.0 - - - - - - -
21/12:30am 13.3 S 5 5 1015.9 - 0.0 - - - - - - -
21/12:00am 13.3 S 6 8 1016.2 - 0.0 - - - - - - -
 
Date/Time
EDT
Temp

°C
Wind Pressure Rain
since 9am
mm
Weather Cloud Vis
km
Sea
Height
m
Swell
Dir
 
Speed
knots
Gust
knots
hPa Trend Height
m
Period
s
Dir
20/11:30pm 13.2 S 5 8 1016.1 - 0.0 - - - - - - -
20/11:00pm 12.9 S 6 8 1016.2 - 0.0 - - - - - - -
20/10:30pm 12.9 S 4 6 1016.3 - 0.0 - - - - - - -
20/10:00pm 13.2 S 5 7 1016.4 - 0.0 - - - - - - -
20/09:30pm 13.6 SSW 8 11 1016.1 - 0.0 - - - - - - -
20/09:00pm 13.8 SSW 9 13 1015.7 - 0.0 - - - - - - -
20/08:30pm 14.1 SSW 13 18 1015.4 - 0.0 - - - - - - -
20/08:00pm 14.1 SSW 13 17 1015.3 - 0.0 - - - - - - -
20/07:30pm 14.7 S 13 17 1015.0 - 0.0 - - - - - - -
20/07:00pm 15.6 SSW 16 20 1014.4 - 0.0 - - - - - - -
20/06:30pm 15.6 SSW 16 19 1014.0 - 0.0 - - - - - - -
20/06:00pm 16.2 S 14 17 1013.9 - 0.0 - - - - - - -
20/05:30pm 16.0 S 14 18 1013.5 - 0.0 - - - - - - -
20/05:00pm 17.3 S 16 20 1013.4 - 0.0 - - - - - - -
20/04:30pm 17.3 S 17 20 1013.0 - 0.0 - - - - - - -
20/04:00pm 17.6 S 17 20 1012.6 - 0.0 - - - - - - -
20/03:30pm 18.2 SSW 18 22 1012.4 - 0.0 - - - - - - -
20/03:00pm 19.1 SSW 19 22 1012.2 - 0.0 - - - - - - -
20/02:30pm 19.9 SSW 14 18 1012.1 - 0.0 - - - - - - -
20/02:00pm 18.9 SSW 14 17 1012.0 - 0.0 - - - - - - -
20/01:30pm 20.8 SW 16 20 1011.8 - 0.0 - - - - - - -
20/01:00pm 20.1 SSW 11 15 1011.9 - 0.0 - - - - - - -
20/12:30pm 19.6 SW 17 21 1011.8 - 0.0 - - - - - - -
20/12:00pm 20.3 WSW 16 20 1011.9 - 0.0 - - - - - - -
20/11:55am 19.9 WSW 15 20 1011.8 - 0.0 - - - - - - -
20/11:30am 19.7 WSW 6 10 1011.8 - 0.0 - - - - - - -
20/11:00am 19.0 WSW 7 10 1011.9 - 0.0 - - - - - - -
20/10:30am 17.1 WSW 11 15 1012.0 - 0.0 - - - - - - -
20/10:00am 18.2 WSW 11 13 1011.7 - 0.0 - - - - - - -

Other Formats:

Comma delimited format used in spreadsheet applications
http://www.bom.gov.au/fwo/IDT60701/IDT60701.94951.axf

JavaScript Object Notation format (JSON) in row-major order
http://www.bom.gov.au/fwo/IDT60701/IDT60701.94951.json